Time;durP1;ratioP1;P1;durP2;ratioP2;P2;SDS_P1;SDS_P2;PMS_P1;PMS_P2;Temp;Humidity;BMP_temperature;BMP_pressure;BME280_temperature;BME280_humidity;BME280_pressure;Samples;Min_cycle;Max_cycle;Signal;HPM_P1;HPM_P2
2022/04/25 00:00:12;;;;;;;18.60;6.73;;;;;;;17.17;78.19;98808.72;4992843;28;20250;-73
2022/04/25 00:02:39;;;;;;;18.20;6.37;;;;;;;17.19;76.54;98801.22;4992502;28;20265;-73
2022/04/25 00:05:07;;;;;;;20.20;6.90;;;;;;;17.22;75.68;98810.63;4992327;28;20668;-74
2022/04/25 00:07:34;;;;;;;15.60;5.87;;;;;;;17.24;75.54;98811.19;4992592;28;20199;-74
2022/04/25 00:10:01;;;;;;;14.20;5.97;;;;;;;17.24;74.44;98808.53;4992727;28;20198;-74
2022/04/25 00:12:28;;;;;;;21.60;6.30;;;;;;;17.28;74.38;98809.63;4992583;28;20627;-74
2022/04/25 00:14:56;;;;;;;21.13;6.40;;;;;;;17.24;74.82;98816.56;4992127;28;20196;-74
2022/04/25 00:17:23;;;;;;;15.13;6.10;;;;;;;17.23;75.05;98814.97;4991214;28;20246;-73
2022/04/25 00:19:49;;;;;;;19.10;7.30;;;;;;;17.20;75.16;98808.22;4991836;28;20291;-74
2022/04/25 00:22:16;;;;;;;19.80;6.00;;;;;;;17.22;75.42;98813.31;4992436;28;20274;-73
2022/04/25 00:24:44;;;;;;;13.27;6.07;;;;;;;17.19;75.47;98811.16;4991937;28;20194;-73
2022/04/25 00:27:11;;;;;;;20.87;7.60;;;;;;;17.14;75.49;98808.41;5006685;28;20652;-73
2022/04/25 00:29:37;;;;;;;16.73;6.50;;;;;;;17.14;75.81;98813.78;5010588;28;20240;-72
2022/04/25 00:32:08;;;;;;;25.63;7.10;;;;;;;17.10;76.07;98818.03;5010809;28;20200;-73
2022/04/25 00:34:35;;;;;;;27.00;6.83;;;;;;;17.08;76.21;98822.84;5011556;28;20214;-73
2022/04/25 00:37:02;;;;;;;18.30;5.53;;;;;;;17.06;75.50;98823.09;5011505;28;20197;-74
2022/04/25 00:39:28;;;;;;;18.70;6.30;;;;;;;17.06;74.65;98819.63;5011362;28;20194;-73
2022/04/25 00:41:56;;;;;;;18.53;5.77;;;;;;;17.06;74.55;98819.63;5011017;28;20256;-73
2022/04/25 00:44:23;;;;;;;18.70;5.53;;;;;;;17.08;74.67;98825.53;5010431;28;20202;-73
2022/04/25 00:46:53;;;;;;;11.97;5.27;;;;;;;17.08;74.52;98820.19;5010608;28;20196;-73
2022/04/25 00:49:22;;;;;;;15.00;4.93;;;;;;;17.06;74.62;98816.94;5013290;28;20661;-73
2022/04/25 00:51:51;;;;;;;15.73;5.40;;;;;;;17.04;75.37;98819.06;5016595;28;20540;-73
2022/04/25 00:54:18;;;;;;;12.07;4.90;;;;;;;17.01;75.40;98822.25;5016782;28;20222;-73
2022/04/25 00:56:46;;;;;;;13.77;5.37;;;;;;;16.97;74.64;98829.19;5015935;28;20678;-73
2022/04/25 00:59:15;;;;;;;20.50;5.60;;;;;;;16.92;74.48;98824.59;5015629;28;20558;-73
2022/04/25 01:01:42;;;;;;;17.60;6.07;;;;;;;16.90;75.29;98833.97;5015528;28;20193;-73
2022/04/25 01:04:10;;;;;;;16.60;6.00;;;;;;;16.83;75.66;98825.28;5015605;28;20742;-73
2022/04/25 01:06:39;;;;;;;11.67;4.80;;;;;;;16.81;75.72;98820.16;5015793;28;20197;-73
2022/04/25 01:09:06;;;;;;;12.00;4.77;;;;;;;16.76;74.95;98820.13;5015726;28;20221;-73
2022/04/25 01:11:33;;;;;;;19.10;4.63;;;;;;;16.80;74.93;98828.47;5015324;28;20649;-73
2022/04/25 01:14:11;;;;;;;8.63;4.33;;;;;;;16.80;74.44;98818.56;5015597;28;20229;-73
2022/04/25 01:16:37;;;;;;;17.83;4.90;;;;;;;16.82;73.41;98826.34;5015823;28;20230;-73
2022/04/25 01:19:04;;;;;;;13.30;4.93;;;;;;;16.83;73.82;98827.97;5015607;28;20269;-73
2022/04/25 01:21:37;;;;;;;10.97;4.33;;;;;;;16.84;73.55;98824.22;5015411;28;20198;-73
2022/04/25 01:29:37;;;;;;;13.37;4.93;;;;;;;16.70;75.66;98817.63;5015660;28;20272;-74
2022/04/25 01:32:04;;;;;;;18.40;5.10;;;;;;;16.62;75.42;98818.09;5014844;28;20668;-74
2022/04/25 01:34:32;;;;;;;16.43;5.13;;;;;;;16.49;75.51;98816.59;5014893;28;20225;-73
2022/04/25 01:36:59;;;;;;;15.47;5.47;;;;;;;16.37;76.05;98817.75;5015234;28;20614;-73
2022/04/25 01:39:27;;;;;;;16.33;5.90;;;;;;;16.32;76.73;98820.34;5015327;28;20203;-75
2022/04/25 01:41:54;;;;;;;15.63;5.73;;;;;;;16.29;77.21;98810.94;5015021;28;20662;-75
2022/04/25 01:44:20;;;;;;;18.43;5.83;;;;;;;16.24;77.13;98810.88;5015224;28;20709;-73
2022/04/25 01:46:47;;;;;;;13.27;5.83;;;;;;;16.19;77.93;98813.50;5015041;28;20190;-74
2022/04/25 01:49:13;;;;;;;13.47;6.30;;;;;;;16.20;78.56;98811.66;5015328;28;20225;-72
2022/04/25 01:51:40;;;;;;;16.67;7.40;;;;;;;16.15;78.62;98811.56;5015148;28;20194;-72
2022/04/25 01:54:07;;;;;;;16.17;6.93;;;;;;;16.13;78.68;98805.66;5014630;28;20222;-72
2022/04/25 01:56:35;;;;;;;10.37;6.37;;;;;;;16.02;78.86;98809.25;5014853;28;20582;-72
2022/04/25 01:59:02;;;;;;;13.77;6.40;;;;;;;15.98;79.83;98808.09;5014592;28;20679;-73
2022/04/25 02:01:29;;;;;;;23.10;7.10;;;;;;;15.94;79.86;98803.25;5013392;28;20253;-72
2022/04/25 02:03:56;;;;;;;14.87;6.70;;;;;;;15.96;79.79;98810.25;5014452;28;20198;-72
2022/04/25 02:06:22;;;;;;;23.23;6.77;;;;;;;15.91;80.16;98808.28;5014664;28;20190;-73
2022/04/25 02:08:49;;;;;;;24.87;7.43;;;;;;;15.88;80.21;98820.31;5014712;28;20190;-74
2022/04/25 02:11:21;;;;;;;15.03;6.60;;;;;;;15.85;80.36;98812.75;5014176;28;20240;-73
2022/04/25 02:13:51;;;;;;;15.93;7.03;;;;;;;15.82;80.89;98805.22;5014524;28;20773;-72
2022/04/25 02:16:18;;;;;;;20.20;6.40;;;;;;;15.78;81.24;98809.47;5014662;28;20233;-72
2022/04/25 02:18:45;;;;;;;15.07;7.37;;;;;;;15.76;81.16;98813.41;5014512;28;20260;-73
2022/04/25 02:21:12;;;;;;;12.63;6.97;;;;;;;15.75;81.26;98817.97;5014148;28;20198;-73
2022/04/25 02:23:39;;;;;;;17.17;6.60;;;;;;;15.70;81.38;98817.91;5014034;28;20198;-73
2022/04/25 02:26:06;;;;;;;12.73;6.57;;;;;;;15.68;81.97;98822.69;5014402;28;20190;-73
2022/04/25 02:28:34;;;;;;;21.43;7.27;;;;;;;15.62;82.10;98821.00;5013163;28;20224;-72
2022/04/25 02:31:04;;;;;;;18.10;8.03;;;;;;;15.57;81.31;98815.53;5014174;28;20198;-72
2022/04/25 02:33:31;;;;;;;19.63;7.23;;;;;;;15.52;82.14;98810.13;5014133;28;20225;-72
2022/04/25 02:35:57;;;;;;;19.20;6.20;;;;;;;15.51;83.09;98818.38;5014194;28;20194;-73
2022/04/25 02:38:24;;;;;;;21.37;7.23;;;;;;;15.42;82.62;98809.97;5014701;28;20193;-72
2022/04/25 02:41:04;;;;;;;13.37;6.47;;;;;;;15.38;83.20;98808.84;5014077;28;20245;-72
2022/04/25 02:43:32;;;;;;;16.00;6.30;;;;;;;15.35;82.86;98806.63;5014119;28;20194;-72
2022/04/25 02:45:59;;;;;;;19.97;7.27;;;;;;;15.36;82.44;98810.94;5014105;28;20286;-72
2022/04/25 02:48:27;;;;;;;18.50;6.60;;;;;;;15.31;82.61;98808.16;5013648;28;20733;-72
2022/04/25 02:50:54;;;;;;;20.87;7.97;;;;;;;15.20;83.11;98817.03;5014352;28;20225;-72
2022/04/25 02:53:24;;;;;;;12.50;6.90;;;;;;;15.06;83.54;98815.75;5013858;28;20194;-72
2022/04/25 02:55:51;;;;;;;21.27;7.57;;;;;;;15.05;84.38;98816.81;5014094;28;20216;-72
2022/04/25 02:58:18;;;;;;;21.03;7.97;;;;;;;15.02;84.57;98819.94;5013791;28;20293;-72
2022/04/25 03:00:45;;;;;;;19.97;8.07;;;;;;;15.02;85.03;98819.94;5013322;28;20573;-72
2022/04/25 03:03:12;;;;;;;18.53;6.93;;;;;;;15.01;84.14;98813.00;5013401;28;20198;-73
2022/04/25 03:05:41;;;;;;;17.13;7.47;;;;;;;14.99;83.58;98815.06;5013611;28;20252;-73
2022/04/25 03:08:08;;;;;;;23.00;8.83;;;;;;;14.90;84.35;98821.88;5013579;28;20189;-72
2022/04/25 03:10:35;;;;;;;26.80;9.33;;;;;;;14.88;85.21;98812.47;5013755;28;20252;-72
2022/04/25 03:13:01;;;;;;;23.20;8.73;;;;;;;14.88;85.45;98818.63;5013136;28;20194;-72
2022/04/25 03:15:28;;;;;;;18.43;9.17;;;;;;;14.89;85.08;98817.56;5012839;28;20292;-72
2022/04/25 03:17:55;;;;;;;25.00;9.00;;;;;;;14.88;85.29;98818.63;5013083;28;20660;-73
2022/04/25 03:20:21;;;;;;;31.57;9.20;;;;;;;14.89;84.76;98828.28;5013253;28;20660;-73
2022/04/25 03:22:50;;;;;;;20.67;8.93;;;;;;;14.87;85.01;98822.34;5013015;28;20745;-72
2022/04/25 03:25:16;;;;;;;22.33;9.67;;;;;;;14.85;85.52;98813.75;5013603;28;20197;-72
2022/04/25 03:27:43;;;;;;;25.40;9.87;;;;;;;14.81;85.16;98822.50;5013173;28;20569;-72
2022/04/25 03:30:10;;;;;;;18.57;10.87;;;;;;;14.65;85.40;98802.69;5013227;28;20194;-72
2022/04/25 03:32:37;;;;;;;25.90;10.93;;;;;;;14.65;85.06;98821.41;5012927;28;20194;-73
2022/04/25 03:35:04;;;;;;;19.97;9.07;;;;;;;14.59;84.81;98819.66;5012768;28;20222;-72
2022/04/25 03:37:31;;;;;;;21.67;10.00;;;;;;;14.58;85.45;98812.69;5013152;28;20225;-71
2022/04/25 03:40:00;;;;;;;22.70;9.83;;;;;;;14.49;85.70;98811.47;5012849;28;20201;-72
2022/04/25 03:42:27;;;;;;;21.03;10.03;;;;;;;14.53;85.64;98820.63;5012685;28;20194;-72
2022/04/25 03:44:54;;;;;;;18.10;9.27;;;;;;;14.61;86.14;98820.25;5012514;28;20764;-72
2022/04/25 03:47:21;;;;;;;18.37;9.30;;;;;;;14.74;85.54;98817.28;5012748;28;20232;-72
2022/04/25 03:49:48;;;;;;;25.47;10.60;;;;;;;14.84;85.20;98812.16;5012785;28;20202;-72
2022/04/25 03:52:14;;;;;;;16.37;9.20;;;;;;;14.93;84.17;98826.75;5012153;28;20568;-72
2022/04/25 03:57:27;;;;;;;29.10;10.13;;;;;;;15.17;84.36;98824.75;5012390;28;20225;-73
2022/04/25 03:59:54;;;;;;;36.30;10.50;;;;;;;15.26;83.20;98824.13;5012775;28;20633;-73
2022/04/25 04:02:21;;;;;;;21.97;9.70;;;;;;;15.34;82.89;98818.41;5012196;28;20225;-73
2022/04/25 04:04:49;;;;;;;17.67;9.07;;;;;;;15.52;82.68;98818.16;5012960;28;20198;-73
2022/04/25 04:07:16;;;;;;;35.13;10.63;;;;;;;15.77;81.78;98823.88;5012466;28;20252;-74
2022/04/25 04:09:46;;;;;;;24.73;9.97;;;;;;;16.02;80.44;98820.78;5012585;28;20194;-73
2022/04/25 04:12:12;;;;;;;25.60;10.33;;;;;;;16.14;78.76;98824.16;5012213;28;20224;-71
2022/04/25 04:14:41;;;;;;;23.90;10.67;;;;;;;16.33;77.89;98817.41;5012083;28;20276;-72
2022/04/25 04:17:08;;;;;;;20.57;10.13;;;;;;;16.54;77.65;98808.59;5012677;28;20234;-72
2022/04/25 04:19:35;;;;;;;26.17;9.90;;;;;;;16.92;76.52;98810.34;5011935;28;20266;-72
2022/04/25 04:22:03;;;;;;;21.63;10.03;;;;;;;17.08;75.22;98806.75;5011942;28;20194;-72
2022/04/25 04:24:31;;;;;;;28.00;10.23;;;;;;;17.27;74.56;98798.06;5011515;28;20713;-72
2022/04/25 04:27:00;;;;;;;16.83;10.00;;;;;;;17.54;73.20;98788.13;5011973;28;20194;-74
2022/04/25 04:29:29;;;;;;;25.30;9.20;;;;;;;17.76;70.83;98780.75;5012133;28;20227;-73
2022/04/25 04:31:58;;;;;;;27.67;9.00;;;;;;;18.09;70.86;98779.59;5012172;28;20241;-75
2022/04/25 04:34:24;;;;;;;16.90;8.43;;;;;;;18.38;68.88;98778.94;5011763;28;20722;-74
2022/04/25 04:36:51;;;;;;;22.13;8.43;;;;;;;18.69;67.55;98774.47;5012174;28;20290;-76
2022/04/25 04:39:18;;;;;;;15.97;8.23;;;;;;;19.11;66.67;98783.16;5011880;28;20687;-76
2022/04/25 04:41:45;;;;;;;18.30;7.47;;;;;;;19.52;64.89;98790.22;5011786;28;20249;-75
2022/04/25 04:44:12;;;;;;;24.67;8.60;;;;;;;19.84;62.74;98804.97;5011611;28;20206;-75
2022/04/25 04:46:39;;;;;;;17.87;7.60;;;;;;;20.13;61.74;98802.50;5011574;28;20191;-76
2022/04/25 04:49:07;;;;;;;22.10;7.50;;;;;;;20.48;60.25;98799.69;5011791;28;20191;-76
2022/04/25 04:51:34;;;;;;;18.37;7.97;;;;;;;20.75;59.14;98802.81;5011881;28;20263;-75
2022/04/25 04:54:02;;;;;;;17.27;7.03;;;;;;;20.92;58.15;98811.38;5011852;28;20197;-74
2022/04/25 04:56:30;;;;;;;18.57;7.40;;;;;;;21.14;57.21;98803.66;5012171;28;20695;-76
2022/04/25 04:58:57;;;;;;;20.47;7.70;;;;;;;21.24;55.64;98798.22;5011646;28;20197;-76
2022/04/25 05:01:23;;;;;;;22.90;7.40;;;;;;;21.34;55.55;98789.19;5011912;28;20194;-73
2022/04/25 05:03:50;;;;;;;16.80;6.97;;;;;;;21.52;55.83;98783.91;5011617;28;20198;-72
2022/04/25 05:06:18;;;;;;;12.67;7.93;;;;;;;21.77;54.23;98791.03;5011488;28;20190;-76
2022/04/25 05:08:45;;;;;;;16.17;7.27;;;;;;;22.13;54.01;98816.63;5011688;28;20198;-73
2022/04/25 05:11:11;;;;;;;15.13;8.40;;;;;;;22.33;51.30;98819.91;5011676;28;20190;-72
2022/04/25 05:13:38;;;;;;;16.47;8.37;;;;;;;22.37;51.94;98826.34;5011314;28;20198;-73
2022/04/25 05:16:06;;;;;;;18.07;7.03;;;;;;;22.49;52.09;98832.19;5011369;28;20233;-77
2022/04/25 05:18:33;;;;;;;23.47;8.57;;;;;;;22.63;51.61;98843.97;5012658;28;20249;-74
2022/04/25 05:21:00;;;;;;;21.10;8.53;;;;;;;22.56;51.73;98848.91;5011755;28;20244;-72
2022/04/25 05:23:29;;;;;;;19.27;9.37;;;;;;;22.47;50.86;98845.22;5011479;28;20194;-73
2022/04/25 05:25:55;;;;;;;29.90;7.93;;;;;;;22.61;51.25;98834.47;5011323;28;20259;-72
2022/04/25 05:28:22;;;;;;;19.70;8.00;;;;;;;22.92;50.97;98858.19;5011174;28;20213;-74
2022/04/25 05:30:49;;;;;;;8.40;4.47;;;;;;;23.25;55.80;98856.41;5011754;28;20198;-70
2022/04/25 05:33:17;;;;;;;16.47;8.33;;;;;;;23.18;50.91;98878.44;5006496;28;20652;-73
2022/04/25 05:35:45;;;;;;;14.20;6.40;;;;;;;23.31;55.02;98876.91;5013442;28;20703;-71
2022/04/25 05:38:12;;;;;;;17.13;6.47;;;;;;;23.92;49.56;98900.13;5014519;28;20667;-71
2022/04/25 05:40:41;;;;;;;16.77;7.40;;;;;;;24.11;47.95;98911.75;5009374;28;20672;-72
2022/04/25 05:43:08;;;;;;;13.83;6.60;;;;;;;23.96;47.55;98911.16;5014126;28;20282;-69
2022/04/25 05:45:35;;;;;;;31.43;7.50;;;;;;;23.63;48.54;98914.94;5013292;28;20923;-72
2022/04/25 05:51:58;;;;;;;16.07;7.00;;;;;;;24.09;50.45;98913.94;5012857;28;20196;-70
2022/04/25 05:53:37;;;;;;;12.50;7.03;;;;;;;24.33;45.88;98927.34;4992311;28;20191;-69
2022/04/25 05:56:05;;;;;;;15.33;6.23;;;;;;;23.48;48.63;98915.97;4993296;28;20233;-69
2022/04/25 05:58:32;;;;;;;15.83;6.87;;;;;;;22.96;50.30;98908.00;4991900;28;20710;-68
2022/04/25 06:00:59;;;;;;;17.30;6.67;;;;;;;22.56;52.39;98896.81;4992860;28;20263;-69
2022/04/25 06:03:26;;;;;;;14.43;6.67;;;;;;;22.66;52.79;98902.91;4993275;28;20282;-72
2022/04/25 06:05:54;;;;;;;12.47;6.53;;;;;;;23.30;53.10;98895.09;4996452;28;20606;-67
2022/04/25 06:08:21;;;;;;;26.27;7.33;;;;;;;23.11;52.80;98888.03;5013127;28;20241;-65
2022/04/25 06:10:47;;;;;;;17.87;7.00;;;;;;;23.15;50.99;98887.13;5013042;28;20198;-65
2022/04/25 06:13:16;;;;;;;17.30;6.53;;;;;;;23.39;52.27;98885.19;5012943;28;20194;-68
2022/04/25 06:15:42;;;;;;;19.87;6.03;;;;;;;23.41;49.95;98902.00;5013153;28;20242;-69
2022/04/25 06:18:09;;;;;;;25.23;6.67;;;;;;;23.49;48.98;98895.88;5012973;28;20191;-69
2022/04/25 06:20:37;;;;;;;10.57;6.30;;;;;;;23.33;49.12;98891.81;4995845;28;20676;-70
2022/04/25 06:23:05;;;;;;;9.63;5.30;;;;;;;23.19;50.59;98888.16;5013554;28;20209;-69
2022/04/25 06:25:31;;;;;;;15.70;5.60;;;;;;;23.18;49.74;98883.84;5013751;28;20205;-71
2022/04/25 06:28:00;;;;;;;21.70;7.13;;;;;;;23.26;51.98;98875.09;5013585;28;20252;-75
2022/04/25 06:30:29;;;;;;;15.87;8.57;;;;;;;23.80;49.40;98886.19;5013543;28;20277;-74
2022/04/25 06:32:57;;;;;;;20.80;9.13;;;;;;;24.19;46.43;98886.63;5014046;28;20206;-70
2022/04/25 06:35:24;;;;;;;22.97;11.63;;;;;;;24.16;46.36;98879.06;5013838;28;20229;-71
2022/04/25 06:37:51;;;;;;;14.87;9.40;;;;;;;24.29;47.72;98878.28;5013763;28;20199;-72
2022/04/25 06:40:19;;;;;;;28.73;12.07;;;;;;;24.65;46.66;98892.84;5013643;28;20259;-70
2022/04/25 06:42:46;;;;;;;17.63;11.00;;;;;;;24.99;44.28;98881.53;5012036;28;20227;-72
2022/04/25 06:45:13;;;;;;;17.57;8.33;;;;;;;24.77;43.73;98882.28;4994300;28;20196;-78
2022/04/25 06:47:41;;;;;;;15.40;6.37;;;;;;;24.39;44.60;98872.66;4996728;28;20212;-74
2022/04/25 06:50:09;;;;;;;8.93;5.70;;;;;;;24.38;44.20;98875.69;4994451;28;20263;-76
2022/04/25 06:52:36;;;;;;;9.90;4.87;;;;;;;24.25;45.07;98871.03;4994174;28;20201;-72
2022/04/25 06:55:04;;;;;;;9.10;5.43;;;;;;;24.15;43.78;98877.47;5007743;28;20274;-69
2022/04/25 06:57:33;;;;;;;15.53;6.13;;;;;;;24.00;47.18;98872.31;5008463;28;20693;-67
2022/04/25 07:00:00;;;;;;;19.20;6.43;;;;;;;24.13;48.68;98871.53;4992151;28;20204;-68
2022/04/25 07:02:26;;;;;;;21.00;6.37;;;;;;;24.38;46.86;98875.69;4994657;28;20860;-68
2022/04/25 07:04:54;;;;;;;15.10;6.33;;;;;;;24.83;45.07;98875.63;4992294;28;20261;-69
2022/04/25 07:07:21;;;;;;;13.50;5.70;;;;;;;25.20;43.96;98871.84;4993428;28;20753;-70
2022/04/25 07:09:48;;;;;;;15.53;5.33;;;;;;;25.26;42.32;98881.50;4993317;28;20253;-70
2022/04/25 07:12:15;;;;;;;12.23;5.00;;;;;;;25.42;41.78;98868.38;5010833;28;20190;-69
2022/04/25 07:14:41;;;;;;;15.67;6.37;;;;;;;25.60;41.61;98870.91;5012736;28;20325;-71
2022/04/25 07:17:08;;;;;;;22.40;8.63;;;;;;;25.48;42.08;98865.22;4997700;28;20287;-68
2022/04/25 07:19:39;;;;;;;17.53;7.70;;;;;;;25.55;43.42;98864.81;5012950;28;20247;-68
2022/04/25 07:30:20;;;;;;;10.67;4.47;;;;;;;25.61;42.05;98866.31;5012851;28;20225;-70
2022/04/25 07:32:47;;;;;;;11.10;5.33;;;;;;;25.52;42.29;98868.16;5004360;28;20659;-69
2022/04/25 07:35:14;;;;;;;19.30;5.30;;;;;;;25.46;42.34;98864.75;4992856;28;20777;-69
2022/04/25 07:37:42;;;;;;;18.43;6.07;;;;;;;25.51;43.04;98859.19;4993254;28;20194;-70
2022/04/25 07:40:09;;;;;;;41.70;7.03;;;;;;;25.38;42.61;98861.94;5005429;28;20202;-71
2022/04/25 07:42:38;;;;;;;14.77;4.70;;;;;;;25.49;43.78;98841.56;5012039;28;20198;-70
2022/04/25 07:45:06;;;;;;;18.73;5.70;;;;;;;25.41;41.72;98847.72;5010697;28;20194;-70
2022/04/25 07:47:33;;;;;;;19.57;5.50;;;;;;;25.58;41.26;98836.97;5012536;28;20194;-71
2022/04/25 07:50:00;;;;;;;16.47;5.07;;;;;;;25.84;42.96;98836.03;5012945;28;20191;-70
2022/04/25 07:52:26;;;;;;;13.93;5.27;;;;;;;26.08;41.73;98841.16;5012426;28;20198;-71
2022/04/25 07:54:56;;;;;;;17.03;5.50;;;;;;;26.51;40.64;98847.63;5011834;28;20190;-70
2022/04/25 07:57:22;;;;;;;11.73;5.80;;;;;;;26.73;41.49;98832.03;5012166;28;20190;-72
2022/04/25 07:59:49;;;;;;;21.33;4.80;;;;;;;26.90;40.08;98823.88;5007653;28;20264;-72
2022/04/25 08:02:17;;;;;;;12.00;4.90;;;;;;;27.18;38.72;98832.56;5012423;28;20198;-72
2022/04/25 08:04:44;;;;;;;15.77;5.50;;;;;;;27.49;38.38;98830.53;5012623;28;20194;-72
2022/04/25 08:07:11;;;;;;;12.20;5.00;;;;;;;27.75;37.32;98828.56;5012284;28;20205;-73
2022/04/25 08:09:38;;;;;;;15.00;4.67;;;;;;;27.60;36.82;98827.13;5012018;28;20277;-71
2022/04/25 08:20:20;;;;;;;15.17;4.57;;;;;;;26.99;38.83;98810.28;5006282;28;20691;-68
2022/04/25 08:22:46;;;;;;;15.03;5.07;;;;;;;27.40;38.97;98807.91;5009694;28;20210;-68
2022/04/25 08:25:13;;;;;;;19.20;4.90;;;;;;;27.77;37.30;98804.47;4991779;28;20292;-78
2022/04/25 08:27:41;;;;;;;13.80;4.63;;;;;;;27.75;37.09;98798.53;5010819;28;20194;-72
2022/04/25 08:30:08;;;;;;;15.40;4.93;;;;;;;27.60;37.01;98793.59;5002696;28;20280;-69
2022/04/25 08:32:35;;;;;;;16.67;5.17;;;;;;;27.56;37.12;98798.88;5002710;28;20292;-73
2022/04/25 08:35:02;;;;;;;15.80;5.57;;;;;;;27.67;37.35;98791.16;5011354;28;20266;-78
2022/04/25 08:37:30;;;;;;;18.20;5.17;;;;;;;27.96;37.29;98791.28;5012064;28;20211;-76
2022/04/25 08:39:57;;;;;;;18.60;4.80;;;;;;;28.23;36.35;98775.28;5011471;28;20610;-79
2022/04/25 08:42:29;;;;;;;20.80;4.70;;;;;;;28.09;36.96;98769.22;5011283;28;20269;-78
2022/04/25 08:45:01;;;;;;;16.67;4.60;;;;;;;28.21;36.56;98771.25;5011792;28;20192;-76
2022/04/25 08:47:30;;;;;;;21.37;5.30;;;;;;;28.02;36.88;98773.59;5011553;28;20252;-75
2022/04/25 08:49:58;;;;;;;15.03;4.83;;;;;;;28.02;36.42;98766.19;5010941;28;20202;-83
2022/04/25 08:52:27;;;;;;;25.80;5.53;;;;;;;28.11;36.54;98771.63;5009507;28;20194;-73
2022/04/25 08:54:56;;;;;;;23.30;5.03;;;;;;;28.26;36.11;98776.56;5010653;28;20328;-76
2022/04/25 08:57:24;;;;;;;10.27;4.77;;;;;;;28.29;36.22;98773.16;5011706;28;20202;-74
2022/04/25 08:59:51;;;;;;;21.43;5.17;;;;;;;28.27;36.36;98769.97;5011202;28;20194;-75
2022/04/25 09:02:20;;;;;;;18.47;5.20;;;;;;;28.10;37.60;98770.81;5009864;28;20197;-75
2022/04/25 09:04:47;;;;;;;23.57;4.63;;;;;;;28.16;36.34;98768.72;5009954;28;20229;-74
2022/04/25 09:07:14;;;;;;;13.07;4.77;;;;;;;28.17;36.87;98764.88;5009745;28;20284;-74
2022/04/25 09:09:41;;;;;;;17.20;5.17;;;;;;;27.87;37.58;98760.47;5010307;28;20548;-75
2022/04/25 09:12:14;;;;;;;25.53;6.07;;;;;;;27.66;37.41;98756.81;5014101;28;20208;-75
2022/04/25 09:14:43;;;;;;;12.17;4.50;;;;;;;27.71;37.81;98754.72;5014680;28;20193;-74
2022/04/25 09:17:10;;;;;;;15.30;4.23;;;;;;;28.04;36.89;98749.50;5015326;28;20226;-75
2022/04/25 09:19:39;;;;;;;14.67;5.00;;;;;;;28.39;36.04;98753.66;5015008;28;20675;-75
2022/04/25 09:22:06;;;;;;;10.30;4.60;;;;;;;28.72;36.15;98744.50;5014820;28;20642;-76
2022/04/25 09:24:35;;;;;;;13.17;4.57;;;;;;;28.97;35.61;98750.91;5015351;28;20194;-76
2022/04/25 09:27:13;;;;;;;11.77;4.30;;;;;;;29.05;34.88;98736.38;5014797;28;20202;-75
2022/04/25 09:29:42;;;;;;;17.40;4.90;;;;;;;29.29;34.00;98739.22;5014958;28;20667;-76
2022/04/25 09:32:10;;;;;;;12.97;4.90;;;;;;;29.63;33.16;98729.91;5015604;28;20208;-75
2022/04/25 09:37:41;;;;;;;15.47;4.23;;;;;;;29.56;33.22;98718.66;5015588;28;20296;-74
2022/04/25 09:40:09;;;;;;;16.53;5.03;;;;;;;29.23;33.66;98716.75;5014724;28;20221;-75
2022/04/25 09:42:36;;;;;;;20.20;6.07;;;;;;;29.11;34.26;98713.13;5015456;28;20604;-76
2022/04/25 09:45:04;;;;;;;11.37;4.27;;;;;;;29.22;33.73;98716.28;5015028;28;20260;-76
2022/04/25 09:47:33;;;;;;;23.03;5.00;;;;;;;29.32;33.69;98713.94;5014662;28;20560;-76
2022/04/25 09:50:03;;;;;;;19.57;5.47;;;;;;;28.97;34.77;98701.66;5014709;28;20198;-76
2022/04/25 09:52:31;;;;;;;9.93;4.40;;;;;;;28.97;34.26;98710.69;5015353;28;20191;-76
2022/04/25 09:55:10;;;;;;;16.50;5.63;;;;;;;28.77;35.07;98703.28;5014720;28;20252;-76
2022/04/25 09:57:37;;;;;;;21.83;5.23;;;;;;;28.93;35.05;98714.41;5014289;28;20271;-75
2022/04/25 10:00:06;;;;;;;24.07;5.33;;;;;;;29.06;34.87;98699.69;5014321;28;20317;-76
2022/04/25 10:02:33;;;;;;;13.27;5.00;;;;;;;29.08;34.12;98697.41;5014279;28;20733;-73
2022/04/25 10:05:13;;;;;;;13.70;4.43;;;;;;;28.93;34.66;98687.06;5014485;28;20248;-73
2022/04/25 10:07:41;;;;;;;17.80;5.80;;;;;;;28.82;34.48;98688.59;5014462;28;20189;-75
2022/04/25 10:10:09;;;;;;;17.23;5.57;;;;;;;28.97;34.61;98680.59;5014446;28;20194;-76
2022/04/25 10:12:36;;;;;;;14.50;5.00;;;;;;;29.22;34.66;98673.31;5015007;28;20226;-75
2022/04/25 10:15:04;;;;;;;21.97;5.03;;;;;;;29.52;33.34;98688.41;5014279;28;20190;-76
2022/04/25 10:17:32;;;;;;;11.00;4.60;;;;;;;29.61;32.35;98678.22;5014635;28;20206;-75
2022/04/25 10:20:00;;;;;;;15.60;5.10;;;;;;;29.46;33.10;98687.06;5015315;28;20285;-73
2022/04/25 10:22:28;;;;;;;14.40;4.53;;;;;;;29.69;32.04;98688.28;5012952;28;20640;-74
2022/04/25 10:24:55;;;;;;;15.97;3.87;;;;;;;29.84;32.36;98693.06;5014070;28;20569;-74
2022/04/25 10:27:27;;;;;;;19.80;4.67;;;;;;;29.83;32.02;98699.69;5013895;28;20233;-74
2022/04/25 10:29:55;;;;;;;15.23;4.43;;;;;;;29.86;31.72;98690.00;5014331;28;20182;-75
2022/04/25 10:32:23;;;;;;;14.53;4.40;;;;;;;29.69;32.64;98679.25;5013925;28;20198;-74
2022/04/25 10:34:54;;;;;;;13.07;4.27;;;;;;;29.71;32.71;98674.22;5014740;28;20241;-73
2022/04/25 10:37:32;;;;;;;17.63;4.83;;;;;;;29.72;32.48;98675.84;5013723;28;20206;-73
2022/04/25 10:40:00;;;;;;;10.20;4.40;;;;;;;29.80;32.96;98670.25;5014236;28;20252;-74
2022/04/25 10:45:11;;;;;;;14.17;4.43;;;;;;;29.70;33.11;98678.09;5014385;28;20276;-73
2022/04/25 10:47:57;;;;;;;14.40;4.40;;;;;;;29.68;33.28;98662.03;5013394;28;20753;-73
2022/04/25 10:50:24;;;;;;;17.37;4.70;;;;;;;29.58;33.28;98659.75;5014179;28;20217;-72
2022/04/25 10:52:57;;;;;;;14.10;4.57;;;;;;;29.74;33.33;98662.59;5013333;28;20229;-73
2022/04/25 10:55:46;;;;;;;14.60;5.00;;;;;;;29.65;32.81;98657.25;5014579;28;20186;-74
2022/04/25 10:58:20;;;;;;;25.53;6.70;;;;;;;29.58;32.92;98651.53;5013089;28;20683;-73
2022/04/25 11:00:52;;;;;;;16.63;5.10;;;;;;;29.70;33.26;98653.47;5013320;28;20245;-74
2022/04/25 11:03:21;;;;;;;20.00;5.53;;;;;;;29.74;32.37;98654.38;5013144;28;20201;-73
2022/04/25 11:05:48;;;;;;;18.27;4.83;;;;;;;29.84;32.42;98656.69;5013318;28;20738;-73
2022/04/25 11:08:52;;;;;;;17.87;5.20;;;;;;;29.42;32.51;98647.81;5013294;28;20201;-73
2022/04/25 11:11:20;;;;;;;12.60;4.33;;;;;;;29.18;32.16;98647.75;5012993;28;20244;-73
2022/04/25 11:14:23;;;;;;;12.90;4.50;;;;;;;29.11;33.12;98652.97;5013047;28;20687;-73
2022/04/25 11:17:13;;;;;;;13.47;5.40;;;;;;;28.68;34.05;98649.81;5012985;28;20291;-73
2022/04/25 11:19:47;;;;;;;14.40;5.00;;;;;;;28.67;34.93;98653.69;5012898;28;20273;-73
2022/04/25 11:22:50;;;;;;;15.40;4.93;;;;;;;28.83;34.41;98646.47;5013252;28;20189;-73
2022/04/25 11:25:42;;;;;;;19.47;4.70;;;;;;;28.88;33.72;98651.72;5013902;28;20185;-74
2022/04/25 11:28:11;;;;;;;13.57;4.40;;;;;;;28.85;33.59;98652.38;4998666;28;20667;-74
2022/04/25 11:30:39;;;;;;;11.50;4.63;;;;;;;28.86;33.46;98635.66;5013874;28;20197;-74
2022/04/25 11:33:07;;;;;;;10.93;4.07;;;;;;;28.94;33.55;98647.63;5012484;28;20569;-73
2022/04/25 11:35:34;;;;;;;20.50;4.70;;;;;;;29.16;32.92;98641.84;5012961;28;20248;-72
2022/04/25 11:38:02;;;;;;;13.80;4.67;;;;;;;29.38;32.94;98633.22;5012781;28;20217;-73
2022/04/25 11:40:29;;;;;;;12.10;4.77;;;;;;;29.45;32.61;98638.94;5013225;28;20256;-73
2022/04/25 11:42:59;;;;;;;18.90;5.30;;;;;;;29.36;31.75;98624.56;5012853;28;20251;-73
2022/04/25 11:45:26;;;;;;;14.93;4.50;;;;;;;29.37;32.10;98630.81;5013718;28;20192;-73
2022/04/25 11:47:53;;;;;;;14.57;4.80;;;;;;;29.54;31.64;98623.19;5012789;28;20198;-73
2022/04/25 11:50:21;;;;;;;19.10;5.10;;;;;;;29.71;32.61;98633.16;5013556;28;20248;-74
2022/04/25 11:52:50;;;;;;;10.40;4.47;;;;;;;29.72;31.32;98629.31;5012492;28;20374;-74
2022/04/25 11:55:18;;;;;;;16.87;4.37;;;;;;;29.57;31.26;98618.97;5012427;28;20248;-74
2022/04/25 11:57:46;;;;;;;13.27;4.67;;;;;;;29.51;30.55;98629.34;5012704;28;20225;-74
2022/04/25 12:00:17;;;;;;;15.07;4.43;;;;;;;29.56;28.80;98620.91;5012567;28;20281;-74
2022/04/25 12:02:45;;;;;;;18.80;4.33;;;;;;;29.60;27.93;98605.44;5012536;28;20186;-74